createdAt,value
2023-03-18T00:00:19.163Z,99.90
2023-03-18T00:02:49.033Z,99.90
2023-03-18T00:05:18.449Z,99.90
2023-03-18T00:07:47.667Z,99.90
2023-03-18T00:10:16.958Z,99.90
2023-03-18T00:12:46.533Z,99.90
2023-03-18T00:15:19.094Z,99.90
2023-03-18T00:17:48.756Z,99.90
2023-03-18T00:20:18.553Z,99.90
2023-03-18T00:22:47.214Z,99.90
2023-03-18T00:25:16.578Z,99.90
2023-03-18T00:27:45.144Z,99.90
2023-03-18T00:30:14.580Z,99.90
2023-03-18T00:32:44.507Z,99.90
2023-03-18T00:35:13.079Z,99.90
2023-03-18T00:37:42.649Z,99.90
2023-03-18T00:40:17.523Z,99.90
2023-03-18T00:42:50.758Z,99.90
2023-03-18T00:45:19.588Z,99.90
2023-03-18T00:47:51.429Z,99.90
2023-03-18T00:50:21.246Z,99.90
2023-03-18T00:52:50.158Z,99.90
2023-03-18T00:55:19.078Z,99.90
2023-03-18T00:57:48.175Z,99.90
2023-03-18T01:00:17.820Z,99.90
2023-03-18T01:02:48.645Z,99.90
2023-03-18T01:05:19.203Z,99.90
2023-03-18T01:07:48.586Z,99.90
2023-03-18T01:10:17.809Z,99.90
2023-03-18T01:12:48.310Z,99.90
2023-03-18T01:15:19.289Z,99.90
2023-03-18T01:17:48.202Z,99.90
2023-03-18T01:20:21.228Z,99.90
2023-03-18T01:22:54.247Z,99.90
2023-03-18T01:25:23.958Z,99.90
2023-03-18T01:27:55.815Z,99.90
2023-03-18T01:30:24.873Z,99.90
2023-03-18T01:32:55.814Z,99.90
2023-03-18T01:35:27.238Z,99.90
2023-03-18T01:37:56.102Z,99.90
2023-03-18T01:40:25.835Z,99.90
2023-03-18T01:42:59.693Z,99.90
2023-03-18T01:45:33.825Z,99.90
2023-03-18T01:48:03.479Z,99.90
2023-03-18T01:50:34.824Z,99.90
2023-03-18T01:53:07.636Z,99.90
2023-03-18T01:55:38.036Z,99.90
2023-03-18T01:58:11.587Z,99.90
2023-03-18T02:00:46.127Z,99.90
2023-03-18T02:03:15.473Z,99.90
2023-03-18T02:05:46.325Z,99.90
2023-03-18T02:08:15.812Z,99.90
2023-03-18T02:10:45.623Z,99.90
2023-03-18T02:13:17.172Z,99.90
2023-03-18T02:15:50.688Z,99.90
2023-03-18T02:18:22.291Z,99.90
2023-03-18T02:21:05.339Z,99.90
2023-03-18T02:23:43.942Z,99.90
2023-03-18T02:26:22.065Z,99.90
2023-03-18T02:28:56.438Z,99.90
2023-03-18T02:31:26.448Z,99.90
2023-03-18T02:33:56.785Z,99.90
2023-03-18T02:36:29.094Z,99.90
2023-03-18T02:39:00.500Z,99.90
2023-03-18T02:41:33.293Z,99.90
2023-03-18T02:44:03.824Z,99.90
2023-03-18T02:46:54.082Z,99.90
2023-03-18T02:49:24.341Z,99.90
2023-03-18T02:51:56.426Z,99.90
2023-03-18T02:54:26.910Z,99.90
2023-03-18T02:56:56.040Z,99.90
2023-03-18T02:59:26.747Z,99.90
2023-03-18T03:01:56.388Z,99.90
2023-03-18T03:04:27.237Z,99.90
2023-03-18T03:06:57.960Z,99.90
2023-03-18T03:09:37.663Z,99.90
2023-03-18T03:12:09.268Z,99.90
2023-03-18T03:14:44.656Z,99.90
2023-03-18T03:17:15.441Z,99.90
2023-03-18T03:19:45.975Z,99.90
2023-03-18T03:22:17.527Z,99.90
2023-03-18T03:24:48.912Z,99.90
2023-03-18T03:27:17.965Z,99.90
2023-03-18T03:29:47.950Z,99.90
2023-03-18T03:32:16.549Z,99.90
2023-03-18T03:34:45.127Z,99.90
2023-03-18T03:37:13.890Z,99.90
2023-03-18T03:39:42.522Z,99.90
2023-03-18T03:42:11.509Z,99.90
2023-03-18T03:44:40.871Z,99.90
2023-03-18T03:47:11.489Z,99.90
2023-03-18T03:49:40.666Z,99.90
2023-03-18T03:52:09.643Z,99.90
2023-03-18T03:54:41.660Z,99.90
2023-03-18T03:57:11.990Z,99.90
2023-03-18T03:59:40.587Z,99.90
2023-03-18T04:02:24.484Z,99.90
2023-03-18T04:04:53.400Z,99.90
2023-03-18T04:07:31.884Z,99.90
2023-03-18T04:10:00.600Z,99.90
2023-03-18T04:12:29.623Z,99.90
2023-03-18T04:15:02.050Z,99.90
2023-03-18T04:17:32.691Z,99.90
2023-03-18T04:20:01.538Z,99.90
2023-03-18T04:22:34.324Z,99.90
2023-03-18T04:25:05.822Z,99.90
2023-03-18T04:27:34.840Z,99.90
2023-03-18T04:30:12.466Z,99.90
2023-03-18T04:32:56.185Z,99.90
2023-03-18T04:35:25.330Z,99.90
2023-03-18T04:37:54.374Z,99.90
2023-03-18T04:40:24.185Z,99.90
2023-03-18T04:42:53.372Z,99.90
2023-03-18T04:45:26.053Z,99.90
2023-03-18T04:47:59.277Z,99.90
2023-03-18T04:50:30.073Z,99.90
2023-03-18T04:52:58.971Z,99.90
2023-03-18T04:55:30.909Z,99.90
2023-03-18T04:58:01.989Z,99.90
2023-03-18T05:00:34.097Z,99.90
2023-03-18T05:03:16.954Z,99.90
2023-03-18T05:05:45.546Z,99.90
2023-03-18T05:08:16.807Z,99.90
2023-03-18T05:10:46.264Z,99.90
2023-03-18T05:13:16.361Z,99.90
2023-03-18T05:15:45.459Z,99.90
2023-03-18T05:18:14.318Z,99.90
2023-03-18T05:20:46.120Z,99.90
2023-03-18T05:23:16.941Z,99.90
2023-03-18T05:25:51.540Z,99.90
2023-03-18T05:28:22.711Z,99.90
2023-03-18T05:31:09.606Z,99.90
2023-03-18T05:33:42.660Z,99.90
2023-03-18T05:36:14.883Z,99.90
2023-03-18T05:38:54.906Z,99.90
2023-03-18T05:41:24.462Z,99.90
2023-03-18T05:43:54.269Z,99.90
2023-03-18T05:46:23.124Z,99.90
2023-03-18T05:49:08.946Z,99.90
2023-03-18T05:51:49.458Z,99.90
2023-03-18T05:54:29.084Z,99.90
2023-03-18T05:56:58.320Z,99.90
2023-03-18T05:59:27.029Z,99.90
2023-03-18T06:02:00.688Z,99.90
2023-03-18T06:04:29.425Z,99.90
2023-03-18T06:06:59.545Z,99.90
2023-03-18T06:09:28.207Z,99.90
2023-03-18T06:11:57.388Z,99.90
2023-03-18T06:14:29.407Z,99.90
2023-03-18T06:17:01.646Z,99.90
2023-03-18T06:19:32.081Z,99.90
2023-03-18T06:22:02.831Z,99.90
2023-03-18T06:24:31.664Z,99.90
2023-03-18T06:27:00.825Z,99.90
2023-03-18T06:29:29.995Z,99.90
2023-03-18T06:32:03.070Z,99.90
2023-03-18T06:34:31.867Z,99.90
2023-03-18T06:37:02.430Z,99.90
2023-03-18T06:39:31.891Z,99.90
2023-03-18T06:42:05.055Z,99.90
2023-03-18T06:44:38.069Z,99.90
2023-03-18T06:47:16.240Z,99.90
2023-03-18T06:49:53.080Z,99.90
2023-03-18T06:52:30.074Z,99.90
2023-03-18T06:55:04.463Z,99.90
2023-03-18T06:57:34.744Z,99.90
2023-03-18T07:00:06.028Z,99.90
2023-03-18T07:02:35.389Z,99.90
2023-03-18T07:05:05.999Z,99.90
2023-03-18T07:07:38.838Z,99.90
2023-03-18T07:10:09.796Z,99.90
2023-03-18T07:12:38.387Z,99.90
2023-03-18T07:15:08.919Z,99.90
2023-03-18T07:17:37.641Z,99.90
2023-03-18T07:20:07.446Z,99.90
2023-03-18T07:22:39.455Z,99.90
2023-03-18T07:25:08.945Z,99.90
2023-03-18T07:27:38.041Z,99.90
2023-03-18T07:30:09.646Z,99.90
2023-03-18T07:32:38.764Z,99.90
2023-03-18T07:35:10.879Z,99.90
2023-03-18T07:37:41.720Z,99.90
2023-03-18T07:40:11.859Z,99.90
2023-03-18T07:42:40.466Z,99.90
2023-03-18T07:45:10.564Z,99.90
2023-03-18T07:47:39.877Z,99.90
2023-03-18T07:50:09.716Z,99.90
2023-03-18T07:52:38.486Z,99.90
2023-03-18T07:55:09.434Z,99.90
2023-03-18T07:57:38.126Z,99.90
2023-03-18T08:00:08.142Z,99.90
2023-03-18T08:02:43.279Z,99.90
2023-03-18T08:05:13.726Z,99.90
2023-03-18T08:07:42.844Z,99.90
2023-03-18T08:10:15.110Z,99.90
2023-03-18T08:12:52.637Z,99.90
2023-03-18T08:15:22.695Z,99.90
2023-03-18T08:17:51.466Z,99.90
2023-03-18T08:20:20.236Z,99.90
2023-03-18T08:22:50.162Z,99.90
2023-03-18T08:25:22.197Z,99.90
2023-03-18T08:27:51.018Z,99.90
2023-03-18T08:30:19.931Z,99.90
2023-03-18T08:32:48.534Z,99.90
2023-03-18T08:35:17.126Z,99.90
2023-03-18T08:37:45.958Z,99.90
2023-03-18T08:40:14.822Z,99.90
2023-03-18T08:42:48.336Z,99.90
2023-03-18T08:45:17.136Z,99.90
2023-03-18T08:47:45.807Z,99.90
2023-03-18T08:50:15.409Z,99.90
2023-03-18T08:52:44.032Z,99.90
2023-03-18T08:55:12.567Z,99.90
2023-03-18T08:57:41.167Z,99.90
2023-03-18T09:00:13.559Z,99.90
2023-03-18T09:02:42.120Z,99.90
2023-03-18T09:05:11.894Z,96.00
2023-03-18T09:07:40.416Z,96.80
2023-03-18T09:10:09.780Z,98.90
2023-03-18T09:12:38.266Z,94.60
2023-03-18T09:15:10.191Z,99.90
2023-03-18T09:20:29.418Z,94.40
2023-03-18T09:22:57.987Z,99.80
2023-03-18T09:25:27.108Z,94.20
2023-03-18T09:27:55.718Z,95.50
2023-03-18T09:30:25.747Z,93.20
2023-03-18T09:32:56.782Z,94.00
2023-03-18T09:35:25.477Z,92.60
2023-03-18T09:37:54.221Z,93.40
2023-03-18T10:08:47.204Z,90.80
2023-03-18T10:11:24.790Z,92.10
2023-03-18T10:14:10.369Z,90.60
2023-03-18T10:16:59.572Z,92.00
2023-03-18T10:19:30.380Z,92.40
2023-03-18T10:22:17.828Z,93.90
2023-03-18T10:24:55.625Z,89.70
2023-03-18T10:27:38.523Z,83.70
2023-03-18T10:30:35.249Z,93.50
2023-03-18T10:33:14.880Z,91.40
2023-03-18T10:35:49.610Z,94.50
2023-03-18T11:08:34.530Z,82.10
2023-03-18T11:11:34.842Z,80.10
2023-03-18T11:14:05.648Z,82.60
2023-03-18T11:16:41.644Z,84.60
2023-03-18T11:19:26.026Z,86.10
2023-03-18T11:22:04.640Z,88.70
2023-03-18T11:24:42.624Z,87.80
2023-03-18T11:27:37.553Z,90.60
2023-03-18T11:30:21.480Z,89.70
2023-03-18T11:33:05.013Z,91.30
2023-03-18T11:35:40.942Z,90.40
2023-03-18T11:38:16.633Z,88.30
2023-03-18T11:40:46.150Z,88.20
2023-03-18T11:43:20.117Z,93.30
2023-03-18T11:45:52.995Z,92.30
2023-03-18T11:48:33.444Z,89.90
2023-03-18T11:51:27.442Z,79.80
2023-03-18T11:54:15.581Z,80.50
2023-03-18T11:56:48.639Z,82.10
2023-03-18T11:59:29.048Z,83.40
2023-03-18T12:02:14.101Z,88.30
2023-03-18T12:05:05.648Z,85.70
2023-03-18T12:07:53.188Z,77.00
2023-03-18T12:10:29.840Z,87.80
2023-03-18T12:13:13.610Z,79.30
2023-03-18T12:15:53.259Z,81.80
2023-03-18T12:18:41.175Z,81.00
2023-03-18T13:36:55.403Z,62.60
2023-03-18T13:39:35.903Z,62.10
2023-03-18T13:42:26.835Z,62.00
2023-03-18T13:45:06.933Z,61.50
2023-03-18T13:47:39.061Z,65.40
2023-03-18T13:50:23.958Z,61.50
2023-03-18T13:52:56.527Z,66.40
2023-03-18T13:55:32.077Z,64.30
2023-03-18T14:00:43.605Z,74.70
2023-03-18T14:03:23.191Z,65.10
2023-03-18T14:05:54.307Z,68.50
2023-03-18T14:08:48.868Z,70.60
2023-03-18T14:11:47.062Z,62.20
2023-03-18T14:14:41.945Z,62.90
2023-03-18T14:17:23.797Z,71.40
2023-03-18T14:19:55.692Z,70.20
2023-03-18T14:22:30.486Z,71.10
2023-03-18T14:25:25.297Z,73.20
2023-03-18T14:27:55.913Z,71.20
2023-03-18T14:30:47.718Z,72.80
2023-03-18T14:33:35.320Z,74.40
2023-03-18T14:36:10.766Z,70.80
2023-03-18T14:38:48.465Z,73.80
2023-03-18T14:41:22.909Z,70.90
2023-03-18T14:44:04.426Z,76.80
2023-03-18T14:46:37.490Z,69.40
2023-03-18T14:49:32.209Z,69.00
2023-03-18T14:52:03.221Z,71.10
2023-03-18T14:54:37.240Z,69.90
2023-03-18T14:57:05.821Z,73.20
2023-03-18T14:59:34.336Z,68.90
2023-03-18T15:02:04.680Z,77.20
2023-03-18T15:04:35.015Z,77.30
2023-03-18T15:07:08.542Z,73.80
2023-03-18T15:09:37.865Z,74.10
2023-03-18T15:12:18.839Z,72.20
2023-03-18T15:14:47.464Z,71.60
2023-03-18T15:17:17.985Z,73.10
2023-03-18T15:19:48.236Z,74.70
2023-03-18T15:22:26.235Z,71.40
2023-03-18T15:24:59.406Z,77.40
2023-03-18T15:27:30.904Z,71.90
2023-03-18T15:30:01.042Z,73.70
2023-03-18T15:32:31.720Z,76.50
2023-03-18T15:35:15.106Z,67.20
2023-03-18T15:37:44.652Z,66.30
2023-03-18T15:40:29.982Z,68.80
2023-03-18T15:43:05.350Z,69.90
2023-03-18T15:45:35.697Z,66.90
2023-03-18T15:48:09.314Z,71.10
2023-03-18T15:50:52.361Z,77.30
2023-03-18T15:53:24.838Z,73.60
2023-03-18T15:55:55.642Z,71.60
2023-03-18T15:58:27.685Z,74.20
2023-03-18T16:00:57.947Z,73.00
2023-03-18T16:03:29.292Z,83.00
2023-03-18T16:06:00.015Z,78.20
2023-03-18T16:08:29.036Z,86.00
2023-03-18T16:10:59.560Z,84.80
2023-03-18T16:13:30.696Z,91.60
2023-03-18T16:15:59.304Z,92.30
2023-03-18T16:18:27.868Z,90.80
2023-03-18T16:20:57.474Z,92.80
2023-03-18T16:23:27.755Z,81.60
2023-03-18T16:25:57.280Z,93.10
2023-03-18T16:28:28.202Z,90.40
2023-03-18T16:30:57.825Z,90.60
2023-03-18T16:33:26.814Z,90.10
2023-03-18T16:35:59.353Z,85.40
2023-03-18T16:38:31.301Z,92.50
2023-03-18T16:41:00.022Z,94.60
2023-03-18T16:43:31.545Z,93.40
2023-03-18T16:46:03.888Z,86.30
2023-03-18T16:48:32.567Z,92.80
2023-03-18T16:51:02.925Z,96.80
2023-03-18T16:53:33.429Z,97.80
2023-03-18T16:56:04.785Z,99.90
2023-03-18T16:58:36.236Z,99.30
2023-03-18T17:01:06.366Z,99.90
2023-03-18T17:03:35.458Z,99.90
2023-03-18T17:06:04.581Z,99.90
2023-03-18T17:08:34.703Z,99.90
2023-03-18T17:11:05.204Z,99.90
2023-03-18T17:13:37.965Z,99.90
2023-03-18T17:16:07.161Z,99.90
2023-03-18T17:18:35.841Z,99.90
2023-03-18T17:21:05.551Z,99.90
2023-03-18T17:23:35.649Z,99.90
2023-03-18T17:26:04.891Z,99.90
2023-03-18T17:28:37.286Z,99.90
2023-03-18T17:31:06.831Z,99.90
2023-03-18T17:33:37.744Z,99.90
2023-03-18T17:36:07.762Z,99.90
2023-03-18T17:38:37.921Z,99.90
2023-03-18T17:41:13.783Z,99.90
2023-03-18T17:43:42.360Z,99.90
2023-03-18T17:46:10.978Z,99.90
2023-03-18T17:48:41.153Z,99.90
2023-03-18T17:51:15.067Z,99.90
2023-03-18T17:53:48.110Z,99.90
2023-03-18T17:56:18.614Z,99.90
2023-03-18T17:58:48.913Z,99.90
2023-03-18T18:01:20.581Z,99.90
2023-03-18T18:03:49.381Z,99.90
2023-03-18T18:06:19.543Z,99.90
2023-03-18T18:08:50.136Z,99.90
2023-03-18T18:11:21.667Z,99.90
2023-03-18T18:13:51.687Z,99.90
2023-03-18T18:16:21.781Z,99.90
2023-03-18T18:18:50.368Z,99.90
2023-03-18T18:21:21.822Z,99.90
2023-03-18T18:23:52.544Z,99.90
2023-03-18T18:26:22.220Z,99.90
2023-03-18T18:28:52.145Z,99.90
2023-03-18T18:31:22.907Z,99.90
2023-03-18T18:33:52.627Z,99.90
2023-03-18T18:36:22.794Z,99.90
2023-03-18T18:38:52.867Z,99.90
2023-03-18T18:41:21.533Z,99.90
2023-03-18T18:43:50.026Z,99.90
2023-03-18T18:46:18.887Z,99.90
2023-03-18T18:48:49.505Z,99.90
2023-03-18T18:51:20.355Z,99.90
2023-03-18T18:53:49.987Z,99.90
2023-03-18T18:56:23.743Z,99.90
2023-03-18T18:58:53.357Z,99.90
2023-03-18T19:01:22.085Z,99.90
2023-03-18T19:03:50.704Z,99.90
2023-03-18T19:06:26.576Z,99.90
2023-03-18T19:08:57.777Z,99.90
2023-03-18T19:11:30.588Z,99.90
2023-03-18T19:14:20.692Z,99.90
2023-03-18T19:16:50.084Z,99.90
2023-03-18T19:19:20.707Z,99.90
2023-03-18T19:21:51.071Z,99.90
2023-03-18T19:24:27.685Z,99.90
2023-03-18T19:26:59.669Z,99.90
2023-03-18T19:29:28.548Z,99.90
2023-03-18T19:31:57.176Z,99.90
2023-03-18T19:34:27.048Z,99.90
2023-03-18T19:36:57.278Z,99.90
2023-03-18T19:39:27.997Z,99.90
2023-03-18T19:41:57.963Z,99.90
2023-03-18T19:44:27.764Z,99.90
2023-03-18T19:46:58.763Z,99.90
2023-03-18T19:49:30.118Z,99.90
2023-03-18T19:51:58.775Z,99.90
2023-03-18T19:54:31.677Z,99.90
2023-03-18T19:57:04.468Z,99.90
2023-03-18T19:59:39.009Z,99.90
2023-03-18T20:02:23.105Z,99.90
2023-03-18T20:04:53.327Z,99.90
2023-03-18T20:07:23.677Z,99.90
2023-03-18T20:09:52.462Z,99.90
2023-03-18T20:12:25.811Z,99.90
2023-03-18T20:14:54.397Z,99.90
2023-03-18T20:17:30.155Z,99.90
2023-03-18T20:19:58.826Z,99.90
2023-03-18T20:22:31.705Z,99.90
2023-03-18T20:25:00.671Z,99.90
2023-03-18T20:27:31.642Z,99.90
2023-03-18T20:30:00.966Z,99.90
2023-03-18T20:32:29.618Z,99.90
2023-03-18T20:34:58.190Z,99.90
2023-03-18T20:37:33.628Z,99.90
2023-03-18T20:40:03.132Z,99.90
2023-03-18T20:42:33.719Z,99.90
2023-03-18T20:45:02.312Z,99.90
2023-03-18T20:47:30.892Z,99.90
2023-03-18T20:49:59.632Z,99.90
2023-03-18T20:52:30.791Z,99.90
2023-03-18T20:54:59.842Z,99.90
2023-03-18T20:57:28.594Z,99.90
2023-03-18T20:59:58.504Z,99.90
2023-03-18T21:02:33.212Z,99.90
2023-03-18T21:05:02.922Z,99.90
2023-03-18T21:07:32.060Z,99.90
2023-03-18T21:10:00.904Z,99.90
2023-03-18T21:12:29.642Z,99.90
2023-03-18T21:14:59.721Z,99.90
2023-03-18T21:17:29.511Z,99.90
2023-03-18T21:20:11.168Z,99.90
2023-03-18T21:22:48.271Z,99.90
2023-03-18T21:25:21.624Z,99.90
2023-03-18T21:27:51.684Z,99.90
2023-03-18T21:30:24.024Z,99.90
2023-03-18T21:32:52.697Z,99.90
2023-03-18T21:35:25.817Z,99.90
2023-03-18T21:37:54.994Z,99.90
2023-03-18T21:40:25.212Z,99.90
2023-03-18T21:42:53.799Z,99.90
2023-03-18T21:45:24.507Z,99.90
2023-03-18T21:47:53.684Z,99.90
2023-03-18T21:50:24.340Z,99.90
2023-03-18T21:52:53.674Z,99.90
2023-03-18T21:55:22.902Z,99.90
2023-03-18T21:57:51.573Z,99.90
2023-03-18T22:00:21.513Z,99.90
2023-03-18T22:02:51.634Z,99.90
2023-03-18T22:05:23.781Z,99.90
2023-03-18T22:07:54.034Z,99.90
2023-03-18T22:10:24.241Z,99.90
2023-03-18T22:12:53.070Z,99.90
2023-03-18T22:15:40.021Z,99.90
2023-03-18T22:18:10.174Z,99.90
2023-03-18T22:20:40.428Z,99.90
2023-03-18T22:23:17.654Z,99.90
2023-03-18T22:25:47.983Z,99.90
2023-03-18T22:28:16.957Z,99.90
2023-03-18T22:30:47.657Z,99.90
2023-03-18T22:33:23.066Z,99.90
2023-03-18T22:35:51.779Z,99.90
2023-03-18T22:38:22.040Z,99.90
2023-03-18T22:40:52.768Z,99.90
2023-03-18T22:43:32.258Z,99.90
2023-03-18T22:46:01.986Z,99.90
2023-03-18T22:48:32.799Z,99.90
2023-03-18T22:51:01.712Z,99.90
2023-03-18T22:53:32.179Z,99.90
2023-03-18T22:56:06.962Z,99.90
2023-03-18T22:58:35.547Z,99.90
2023-03-18T23:01:04.305Z,99.90
2023-03-18T23:03:37.358Z,99.90
2023-03-18T23:06:07.717Z,99.90
2023-03-18T23:08:36.819Z,99.90
2023-03-18T23:11:05.370Z,99.90
2023-03-18T23:13:37.027Z,99.90
2023-03-18T23:16:06.385Z,99.90
2023-03-18T23:18:37.644Z,99.90
2023-03-18T23:21:06.601Z,99.90
2023-03-18T23:23:35.135Z,99.90
2023-03-18T23:26:03.696Z,99.90
2023-03-18T23:28:40.935Z,99.90
2023-03-18T23:31:12.583Z,99.90
2023-03-18T23:33:42.503Z,99.90
2023-03-18T23:36:11.245Z,99.90
2023-03-18T23:38:39.762Z,99.90
2023-03-18T23:41:08.591Z,99.90
2023-03-18T23:43:37.303Z,99.90
2023-03-18T23:46:06.421Z,99.90
2023-03-18T23:48:35.029Z,99.90
2023-03-18T23:51:05.199Z,99.90
2023-03-18T23:53:33.765Z,99.90
2023-03-18T23:56:02.341Z,99.90
2023-03-18T23:58:30.971Z,99.90
